createdAt,value
2022-08-24T00:03:59.941Z,3.60
2022-08-24T00:28:55.111Z,4.78
2022-08-24T00:36:30.654Z,3.60
2022-08-24T00:40:22.689Z,4.00
2022-08-24T00:47:32.245Z,3.55
2022-08-24T00:51:55.003Z,3.72
2022-08-24T00:55:22.603Z,4.30
2022-08-24T01:02:17.039Z,4.63
2022-08-24T01:25:00.467Z,4.03
2022-08-24T01:43:20.629Z,4.13
2022-08-24T01:46:59.639Z,4.10
2022-08-24T02:17:46.611Z,3.25
2022-08-24T02:20:37.741Z,3.03
2022-08-24T02:26:32.374Z,3.03
2022-08-24T02:29:36.576Z,3.35
2022-08-24T02:32:24.189Z,3.13
2022-08-24T02:35:18.004Z,3.20
2022-08-24T02:37:52.517Z,3.17
2022-08-24T02:40:29.712Z,3.42
2022-08-24T02:43:28.612Z,3.33
2022-08-24T02:53:36.908Z,3.90
2022-08-24T02:56:20.551Z,3.85
2022-08-24T03:11:12.098Z,3.83
2022-08-24T03:23:16.602Z,5.30
2022-08-24T03:29:04.063Z,5.55
2022-08-24T03:39:41.274Z,6.30
2022-08-24T03:42:29.436Z,6.28
2022-08-24T03:44:56.256Z,5.90
2022-08-24T03:48:03.821Z,5.75
2022-08-24T03:50:38.338Z,5.90
2022-08-24T03:56:07.874Z,6.10
2022-08-24T04:02:38.972Z,6.38
2022-08-24T04:05:56.813Z,6.47
2022-08-24T04:09:00.302Z,5.57
2022-08-24T04:12:06.945Z,6.03
2022-08-24T04:15:21.462Z,5.60
2022-08-24T04:18:00.725Z,6.50
2022-08-24T04:20:28.874Z,6.50
2022-08-24T04:22:56.604Z,7.07
2022-08-24T04:25:27.108Z,7.38
2022-08-24T04:27:54.990Z,7.13
2022-08-24T04:30:23.129Z,7.00
2022-08-24T04:33:16.765Z,6.97
2022-08-24T04:36:01.183Z,7.88
2022-08-24T04:39:06.061Z,7.55
2022-08-24T04:42:58.044Z,7.68
2022-08-24T04:45:56.697Z,7.70
2022-08-24T04:48:50.188Z,8.48
2022-08-24T04:51:42.438Z,8.23
2022-08-24T04:55:19.724Z,8.40
2022-08-24T05:04:50.218Z,7.15
2022-08-24T05:07:18.512Z,7.10
2022-08-24T05:09:47.560Z,7.50
2022-08-24T05:12:15.937Z,7.35
2022-08-24T05:14:52.565Z,7.35
2022-08-24T05:17:19.563Z,7.35
2022-08-24T05:19:47.355Z,6.93
2022-08-24T05:22:14.200Z,6.03
2022-08-24T05:24:46.703Z,6.00
2022-08-24T05:27:14.141Z,5.70
2022-08-24T05:29:41.646Z,5.13
2022-08-24T05:32:10.056Z,4.75
2022-08-24T05:34:37.048Z,4.00
2022-08-24T05:37:04.841Z,4.45
2022-08-24T05:39:50.119Z,3.85
2022-08-24T05:42:16.948Z,4.38
2022-08-24T05:44:48.246Z,3.95
2022-08-24T05:47:18.690Z,4.13
2022-08-24T05:49:47.967Z,4.47
2022-08-24T05:52:15.668Z,4.57
2022-08-24T05:54:44.548Z,5.13
2022-08-24T05:57:16.617Z,4.05
2022-08-24T05:59:54.743Z,4.25
2022-08-24T06:02:23.102Z,3.72
2022-08-24T06:04:50.083Z,4.70
2022-08-24T06:07:17.092Z,4.07
2022-08-24T06:09:54.075Z,4.40
2022-08-24T06:12:20.961Z,3.53
2022-08-24T06:14:48.106Z,4.07
2022-08-24T06:17:19.458Z,4.13
2022-08-24T06:19:46.563Z,4.40
2022-08-24T06:22:13.387Z,4.43
2022-08-24T06:24:59.600Z,4.40
2022-08-24T06:27:27.698Z,4.20
2022-08-24T06:29:59.942Z,4.40
2022-08-24T06:32:47.739Z,4.88
2022-08-24T06:35:47.024Z,4.00
2022-08-24T06:38:14.728Z,4.35
2022-08-24T06:40:42.916Z,4.25
2022-08-24T06:43:11.169Z,4.35
2022-08-24T06:45:45.835Z,4.43
2022-08-24T06:48:16.354Z,4.63
2022-08-24T06:50:44.722Z,4.10
2022-08-24T06:53:15.037Z,4.28
2022-08-24T06:55:57.451Z,6.30
2022-08-24T07:00:56.992Z,4.57
2022-08-24T07:03:24.660Z,4.40
2022-08-24T07:06:08.798Z,4.85
2022-08-24T07:08:43.112Z,5.10
2022-08-24T07:11:14.760Z,4.35
2022-08-24T07:13:42.553Z,5.03
2022-08-24T07:16:10.247Z,5.05
2022-08-24T07:18:41.202Z,4.18
2022-08-24T07:21:11.641Z,4.22
2022-08-24T07:23:46.741Z,4.30
2022-08-24T07:26:22.884Z,4.25
2022-08-24T07:28:59.444Z,4.47
2022-08-24T07:31:31.961Z,5.00
2022-08-24T07:34:09.549Z,5.47
2022-08-24T07:36:43.556Z,4.93
2022-08-24T07:39:11.502Z,3.80
2022-08-24T07:42:12.297Z,4.60
2022-08-24T07:44:28.616Z,3.88
2022-08-24T07:46:55.667Z,3.65
2022-08-24T07:49:36.196Z,3.95
2022-08-24T07:52:05.936Z,4.20
2022-08-24T07:54:34.042Z,3.72
2022-08-24T07:57:04.166Z,5.75
2022-08-24T07:59:33.451Z,4.53
2022-08-24T08:02:00.551Z,4.45
2022-08-24T08:04:28.038Z,5.20
2022-08-24T08:06:57.268Z,6.18
2022-08-24T08:09:24.945Z,4.15
2022-08-24T08:11:52.127Z,3.80
2022-08-24T08:14:20.034Z,3.95
2022-08-24T08:16:47.230Z,3.65
2022-08-24T08:19:14.590Z,4.72
2022-08-24T08:22:07.916Z,3.22
2022-08-24T08:24:45.104Z,3.70
2022-08-24T08:27:17.204Z,3.35
2022-08-24T08:29:44.735Z,3.90
2022-08-24T08:32:17.279Z,3.92
2022-08-24T08:34:46.711Z,4.07
2022-08-24T08:37:15.282Z,3.78
2022-08-24T08:39:42.494Z,4.03
2022-08-24T08:42:28.643Z,3.50
2022-08-24T08:45:01.050Z,3.97
2022-08-24T08:47:43.952Z,3.85
2022-08-24T08:50:18.997Z,4.00
2022-08-24T08:53:01.947Z,4.25
2022-08-24T08:55:47.863Z,3.60
2022-08-24T08:58:57.589Z,4.20
2022-08-24T09:01:46.495Z,3.33
2022-08-24T09:04:50.208Z,3.50
2022-08-24T09:07:35.969Z,3.47
2022-08-24T09:10:10.120Z,3.88
2022-08-24T09:12:59.459Z,3.65
2022-08-24T09:15:57.861Z,3.88
2022-08-24T09:18:47.973Z,4.00
2022-08-24T09:21:17.735Z,4.07
2022-08-24T09:23:53.959Z,3.38
2022-08-24T09:26:27.206Z,3.10
2022-08-24T09:29:10.939Z,3.65
2022-08-24T09:31:52.918Z,3.38
2022-08-24T09:34:25.939Z,3.65
2022-08-24T09:36:59.464Z,4.28
2022-08-24T09:39:35.520Z,3.30
2022-08-24T09:42:11.098Z,3.50
2022-08-24T09:44:56.284Z,2.70
2022-08-24T09:47:35.511Z,2.33
2022-08-24T09:50:08.406Z,2.75
2022-08-24T09:53:00.683Z,2.33
2022-08-24T09:55:37.239Z,2.03
2022-08-24T09:58:32.450Z,1.60
2022-08-24T10:01:13.180Z,1.80
2022-08-24T10:04:15.657Z,1.48
2022-08-24T10:06:51.126Z,1.90
2022-08-24T10:09:40.123Z,1.90
2022-08-24T10:12:20.390Z,1.80
2022-08-24T10:15:18.060Z,1.73
2022-08-24T10:18:22.614Z,1.38
2022-08-24T10:20:59.221Z,1.80
2022-08-24T10:23:43.768Z,1.90
2022-08-24T10:26:23.837Z,1.60
2022-08-24T10:29:17.838Z,2.13
2022-08-24T10:32:15.310Z,2.15
2022-08-24T10:35:08.157Z,1.92
2022-08-24T10:37:42.333Z,2.08
2022-08-24T10:40:36.926Z,2.00
2022-08-24T10:43:33.943Z,1.73
2022-08-24T10:46:25.181Z,2.20
2022-08-24T10:49:03.018Z,2.00
2022-08-24T10:51:42.491Z,1.15
2022-08-24T10:54:13.098Z,1.00
2022-08-24T10:56:56.398Z,1.10
2022-08-24T10:59:34.580Z,1.10
2022-08-24T11:02:27.743Z,1.40
2022-08-24T11:04:59.733Z,1.10
2022-08-24T11:07:27.786Z,1.07
2022-08-24T11:09:58.923Z,1.10
2022-08-24T11:12:36.614Z,0.90
2022-08-24T11:15:26.445Z,1.10
2022-08-24T11:18:04.475Z,0.80
2022-08-24T11:20:52.299Z,0.90
2022-08-24T11:23:29.599Z,1.20
2022-08-24T11:26:12.857Z,1.00
2022-08-24T11:28:45.061Z,1.00
2022-08-24T11:31:14.395Z,1.00
2022-08-24T11:33:49.682Z,1.38
2022-08-24T11:36:23.283Z,1.15
2022-08-24T11:39:22.826Z,1.10
2022-08-24T11:41:53.021Z,1.45
2022-08-24T11:44:38.052Z,1.30
2022-08-24T11:47:37.918Z,0.95
2022-08-24T11:50:43.997Z,1.20
2022-08-24T11:53:51.341Z,1.10
2022-08-24T11:56:45.198Z,1.10
2022-08-24T11:59:18.737Z,1.15
2022-08-24T12:01:57.225Z,1.00
2022-08-24T12:04:43.041Z,1.00
2022-08-24T12:07:10.372Z,1.20
2022-08-24T12:09:44.477Z,0.98
2022-08-24T12:12:33.145Z,0.95
2022-08-24T12:15:15.294Z,0.90
2022-08-24T12:17:49.835Z,1.00
2022-08-24T12:20:36.501Z,1.10
2022-08-24T12:23:07.737Z,1.30
2022-08-24T12:25:54.820Z,1.30
2022-08-24T12:28:29.564Z,1.10
2022-08-24T12:31:00.353Z,1.00
2022-08-24T12:33:31.686Z,1.15
2022-08-24T12:36:02.599Z,0.90
2022-08-24T12:38:34.991Z,1.00
2022-08-24T12:41:27.528Z,1.50
2022-08-24T12:44:00.487Z,0.93
2022-08-24T12:48:59.153Z,1.20
2022-08-24T12:51:35.179Z,1.23
2022-08-24T12:54:40.861Z,1.10
2022-08-24T12:57:14.003Z,1.10
2022-08-24T12:59:46.144Z,1.00
2022-08-24T13:02:19.122Z,1.00
2022-08-24T13:04:49.083Z,1.00
2022-08-24T13:07:46.121Z,1.00
2022-08-24T13:10:35.905Z,1.10
2022-08-24T13:13:05.602Z,0.90
2022-08-24T13:15:32.497Z,1.10
2022-08-24T13:18:08.598Z,1.00
2022-08-24T13:20:36.409Z,0.98
2022-08-24T13:23:21.472Z,1.00
2022-08-24T13:25:49.846Z,0.90
2022-08-24T13:28:22.704Z,1.00
2022-08-24T13:34:00.719Z,1.00
2022-08-24T13:36:55.160Z,1.10
2022-08-24T13:39:40.643Z,0.90
2022-08-24T13:42:16.497Z,1.05
2022-08-24T13:45:14.562Z,1.15
2022-08-24T13:47:50.692Z,0.93
2022-08-24T13:50:32.643Z,1.10
2022-08-24T13:53:26.941Z,1.00
2022-08-24T13:55:56.462Z,1.00
2022-08-24T13:59:00.687Z,1.05
2022-08-24T14:01:39.413Z,1.00
2022-08-24T14:04:29.230Z,1.30
2022-08-24T14:06:58.577Z,1.30
2022-08-24T14:09:43.647Z,1.60
2022-08-24T14:12:34.880Z,1.17
2022-08-24T14:15:25.797Z,1.23
2022-08-24T14:18:37.416Z,1.10
2022-08-24T14:21:09.113Z,0.93
2022-08-24T14:23:59.766Z,1.20
2022-08-24T14:26:40.210Z,1.00
2022-08-24T14:29:16.210Z,2.00
2022-08-24T14:32:11.688Z,1.30
2022-08-24T14:34:42.067Z,1.42
2022-08-24T14:37:20.736Z,1.00
2022-08-24T14:40:10.016Z,1.02
2022-08-24T14:43:00.378Z,1.20
2022-08-24T14:45:46.076Z,1.20
2022-08-24T14:48:22.241Z,1.60
2022-08-24T14:51:18.310Z,1.10
2022-08-24T14:54:03.791Z,2.15
2022-08-24T14:57:07.735Z,1.00
2022-08-24T14:59:55.068Z,1.88
2022-08-24T15:02:44.221Z,0.90
2022-08-24T15:05:20.245Z,1.27
2022-08-24T15:07:59.981Z,0.90
2022-08-24T15:10:42.475Z,1.10
2022-08-24T15:13:47.157Z,0.95
2022-08-24T15:16:21.355Z,1.40
2022-08-24T15:19:06.684Z,1.00
2022-08-24T15:21:42.286Z,1.00
2022-08-24T15:24:13.955Z,1.13
2022-08-24T15:27:07.633Z,1.00
2022-08-24T15:29:37.004Z,1.05
2022-08-24T15:32:07.530Z,0.90
2022-08-24T15:34:54.976Z,0.88
2022-08-24T15:37:39.709Z,1.17
2022-08-24T15:40:22.714Z,0.80
2022-08-24T15:42:53.092Z,1.02
2022-08-24T15:45:21.046Z,1.13
2022-08-24T15:47:51.908Z,1.02
2022-08-24T15:50:29.270Z,1.10
2022-08-24T15:53:06.369Z,1.08
2022-08-24T15:55:39.322Z,1.05
2022-08-24T16:00:59.469Z,1.05
2022-08-24T16:03:28.096Z,1.10
2022-08-24T16:05:57.944Z,1.13
2022-08-24T16:08:24.892Z,1.10
2022-08-24T16:10:56.806Z,1.20
2022-08-24T16:13:31.340Z,1.00
2022-08-24T16:16:05.066Z,1.20
2022-08-24T16:18:50.355Z,1.20
2022-08-24T16:21:24.936Z,0.98
2022-08-24T16:24:01.347Z,1.25
2022-08-24T16:26:52.206Z,1.10
2022-08-24T16:29:37.339Z,0.90
2022-08-24T16:32:30.579Z,1.02
2022-08-24T16:35:21.107Z,0.90
2022-08-24T16:37:48.337Z,1.00
2022-08-24T16:40:16.220Z,4.22
2022-08-24T16:42:43.751Z,1.23
2022-08-24T16:45:14.889Z,1.20
2022-08-24T16:47:41.738Z,1.00
2022-08-24T16:50:09.234Z,1.00
2022-08-24T16:52:36.062Z,1.13
2022-08-24T16:55:04.170Z,1.20
2022-08-24T16:57:36.343Z,0.90
2022-08-24T17:00:09.114Z,1.07
2022-08-24T17:02:36.212Z,1.17
2022-08-24T17:05:03.235Z,0.90
2022-08-24T17:07:30.353Z,0.88
2022-08-24T17:09:59.755Z,1.00
2022-08-24T17:12:27.030Z,1.13
2022-08-24T17:14:53.874Z,3.65
2022-08-24T17:17:24.672Z,1.13
2022-08-24T17:19:53.619Z,1.08
2022-08-24T17:22:22.751Z,1.15
2022-08-24T17:24:50.463Z,1.20
2022-08-24T17:27:18.402Z,1.20
2022-08-24T17:29:45.808Z,1.20
2022-08-24T17:32:13.096Z,1.52
2022-08-24T17:34:40.936Z,1.40
2022-08-24T17:37:08.480Z,0.95
2022-08-24T17:39:35.392Z,1.50
2022-08-24T17:42:03.544Z,0.98
2022-08-24T17:44:36.900Z,1.10
2022-08-24T17:47:05.268Z,0.95
2022-08-24T17:49:32.659Z,1.30
2022-08-24T17:51:59.577Z,0.90
2022-08-24T17:54:29.574Z,1.20
2022-08-24T17:56:56.746Z,1.60
2022-08-24T17:59:32.463Z,1.70
2022-08-24T18:02:05.138Z,1.20
2022-08-24T18:04:33.804Z,1.45
2022-08-24T18:07:04.146Z,1.30
2022-08-24T18:09:39.232Z,1.33
2022-08-24T18:12:08.017Z,1.23
2022-08-24T18:14:35.586Z,1.63
2022-08-24T18:17:06.020Z,1.60
2022-08-24T18:19:33.395Z,1.80
2022-08-24T18:22:01.937Z,1.70
2022-08-24T18:24:32.520Z,1.60
2022-08-24T18:27:14.549Z,1.48
2022-08-24T18:29:43.374Z,1.30
2022-08-24T18:32:11.797Z,1.80
2022-08-24T18:34:39.560Z,2.00
2022-08-24T18:37:06.557Z,2.00
2022-08-24T18:39:36.299Z,2.10
2022-08-24T18:42:05.558Z,2.25
2022-08-24T18:44:32.850Z,2.15
2022-08-24T18:47:03.001Z,2.22
2022-08-24T18:49:29.861Z,1.80
2022-08-24T18:51:56.683Z,2.50
2022-08-24T18:54:31.515Z,2.10
2022-08-24T18:56:58.591Z,2.10
2022-08-24T18:59:25.780Z,1.92
2022-08-24T19:02:11.441Z,2.53
2022-08-24T19:04:44.286Z,2.17
2022-08-24T19:09:38.353Z,1.83
2022-08-24T19:12:06.596Z,2.10
2022-08-24T19:14:34.205Z,2.60
2022-08-24T19:17:01.026Z,2.50
2022-08-24T19:19:27.995Z,2.72
2022-08-24T19:21:54.783Z,2.60
2022-08-24T19:24:25.530Z,2.75
2022-08-24T19:26:53.046Z,2.55
2022-08-24T19:29:33.429Z,1.80
2022-08-24T19:32:09.940Z,2.30
2022-08-24T19:34:40.802Z,2.15
2022-08-24T19:37:09.906Z,2.53
2022-08-24T19:39:36.722Z,2.70
2022-08-24T19:42:04.222Z,3.33
2022-08-24T19:44:51.781Z,2.85
2022-08-24T19:47:22.058Z,3.13
2022-08-24T19:49:48.831Z,2.83
2022-08-24T19:52:15.661Z,2.55
2022-08-24T19:54:45.063Z,2.85
2022-08-24T19:57:51.513Z,2.50
2022-08-24T20:00:18.398Z,2.60
2022-08-24T20:02:49.887Z,3.30
2022-08-24T20:05:18.188Z,3.80
2022-08-24T20:07:46.280Z,2.60
2022-08-24T20:10:14.561Z,3.45
2022-08-24T20:12:41.481Z,3.40
2022-08-24T20:15:08.765Z,3.95
2022-08-24T20:17:36.094Z,3.38
2022-08-24T20:20:05.181Z,3.95
2022-08-24T20:22:32.098Z,3.50
2022-08-24T20:24:58.995Z,3.42
2022-08-24T20:27:27.056Z,3.08
2022-08-24T20:29:54.859Z,3.10
2022-08-24T20:32:21.962Z,3.38
2022-08-24T20:34:48.721Z,3.50
2022-08-24T20:37:21.902Z,4.25
2022-08-24T20:42:21.052Z,3.95
2022-08-24T20:44:49.528Z,4.10
2022-08-24T20:47:17.215Z,5.45
2022-08-24T20:49:44.250Z,5.57
2022-08-24T20:52:11.155Z,4.40
2022-08-24T20:54:39.893Z,4.35
2022-08-24T20:57:08.920Z,4.68
2022-08-24T20:59:35.906Z,5.30
2022-08-24T21:02:03.743Z,4.55
2022-08-24T21:04:30.592Z,5.00
2022-08-24T21:06:57.581Z,5.10
2022-08-24T21:09:25.354Z,4.88
2022-08-24T21:11:52.471Z,5.82
2022-08-24T21:14:19.998Z,5.03
2022-08-24T21:16:47.358Z,5.25
2022-08-24T21:19:18.593Z,4.80
2022-08-24T21:21:47.091Z,4.40
2022-08-24T21:24:15.370Z,5.68
2022-08-24T21:26:42.516Z,5.57
2022-08-24T21:29:09.923Z,4.95
2022-08-24T21:31:37.299Z,5.20
2022-08-24T21:34:22.746Z,4.95
2022-08-24T21:36:52.620Z,4.85
2022-08-24T21:39:19.648Z,4.07
2022-08-24T21:41:46.521Z,4.15
2022-08-24T21:44:13.370Z,4.95
2022-08-24T21:46:40.541Z,7.22
2022-08-24T21:49:12.021Z,6.30
2022-08-24T21:51:39.840Z,5.63
2022-08-24T21:54:06.691Z,6.60
2022-08-24T21:56:34.481Z,6.65
2022-08-24T21:59:01.309Z,8.27
2022-08-24T22:01:28.874Z,7.28
2022-08-24T22:03:56.644Z,7.20
2022-08-24T22:06:26.854Z,7.00
2022-08-24T22:08:57.450Z,6.10
2022-08-24T22:11:24.777Z,6.90
2022-08-24T22:13:53.048Z,6.72
2022-08-24T22:16:20.701Z,6.72
2022-08-24T22:18:48.033Z,7.28
2022-08-24T22:21:18.005Z,7.10
2022-08-24T22:23:44.958Z,6.47
2022-08-24T22:26:12.216Z,7.40
2022-08-24T22:28:40.787Z,7.20
2022-08-24T22:31:17.265Z,7.65
2022-08-24T22:33:44.638Z,8.27
2022-08-24T22:36:15.620Z,7.78
2022-08-24T22:38:43.672Z,7.85
2022-08-24T22:41:11.013Z,8.80
2022-08-24T22:43:56.612Z,8.95
2022-08-24T22:46:24.465Z,9.90
2022-08-24T22:48:51.330Z,9.48
2022-08-24T22:51:18.838Z,9.95
2022-08-24T22:53:45.780Z,9.00
2022-08-24T22:56:18.378Z,9.20
2022-08-24T22:58:46.518Z,8.55
2022-08-24T23:01:22.042Z,8.38
2022-08-24T23:03:49.829Z,8.82
2022-08-24T23:06:17.442Z,8.50
2022-08-24T23:08:44.941Z,8.45
2022-08-24T23:11:12.752Z,8.98
2022-08-24T23:13:40.087Z,8.63
2022-08-24T23:16:08.505Z,8.90
2022-08-24T23:18:54.926Z,10.07
2022-08-24T23:21:22.819Z,9.82
2022-08-24T23:23:50.413Z,10.98
2022-08-24T23:26:18.551Z,10.98
2022-08-24T23:28:49.434Z,10.85
2022-08-24T23:31:19.595Z,12.60
2022-08-24T23:33:47.106Z,12.77
2022-08-24T23:36:18.022Z,11.98
2022-08-24T23:38:44.996Z,11.45
2022-08-24T23:41:15.435Z,11.25
2022-08-24T23:43:42.867Z,11.20
2022-08-24T23:46:10.988Z,12.65
2022-08-24T23:48:38.852Z,13.38
2022-08-24T23:51:24.040Z,14.20
2022-08-24T23:54:09.599Z,15.20
2022-08-24T23:56:42.195Z,15.80
2022-08-24T23:59:22.988Z,13.90
